sensor_id;sensor_type;location;lat;lon;timestamp;temperature;humidity
1546;DHT22;766;51.502;9.752;2023-04-01T00:01:19;8.30;99.90
1546;DHT22;766;51.502;9.752;2023-04-01T00:03:48;8.30;99.90
1546;DHT22;766;51.502;9.752;2023-04-01T00:06:18;8.30;99.90
1546;DHT22;766;51.502;9.752;2023-04-01T00:08:47;8.30;99.90
1546;DHT22;766;51.502;9.752;2023-04-01T00:11:16;8.20;99.90
1546;DHT22;766;51.502;9.752;2023-04-01T00:13:47;8.20;99.90
1546;DHT22;766;51.502;9.752;2023-04-01T00:16:16;8.20;99.90
1546;DHT22;766;51.502;9.752;2023-04-01T00:18:48;8.20;99.90
1546;DHT22;766;51.502;9.752;2023-04-01T00:21:19;8.20;99.90
1546;DHT22;766;51.502;9.752;2023-04-01T00:23:49;8.20;99.90
1546;DHT22;766;51.502;9.752;2023-04-01T00:26:17;8.10;99.90
1546;DHT22;766;51.502;9.752;2023-04-01T00:28:49;8.10;99.90
1546;DHT22;766;51.502;9.752;2023-04-01T00:31:18;8.10;99.90
1546;DHT22;766;51.502;9.752;2023-04-01T00:33:47;8.10;99.90
1546;DHT22;766;51.502;9.752;2023-04-01T00:36:19;8.10;99.90
1546;DHT22;766;51.502;9.752;2023-04-01T00:38:49;8.10;99.90
1546;DHT22;766;51.502;9.752;2023-04-01T00:41:18;8.10;99.90
1546;DHT22;766;51.502;9.752;2023-04-01T00:43:50;8.10;99.90
1546;DHT22;766;51.502;9.752;2023-04-01T00:46:19;8.00;99.90
1546;DHT22;766;51.502;9.752;2023-04-01T00:48:49;8.00;99.90
1546;DHT22;766;51.502;9.752;2023-04-01T00:51:26;8.00;99.90
1546;DHT22;766;51.502;9.752;2023-04-01T00:53:58;8.00;99.90
1546;DHT22;766;51.502;9.752;2023-04-01T00:56:31;8.00;99.90
1546;DHT22;766;51.502;9.752;2023-04-01T00:59:06;8.00;99.90
1546;DHT22;766;51.502;9.752;2023-04-01T01:01:36;8.00;99.90
1546;DHT22;766;51.502;9.752;2023-04-01T01:04:05;8.00;99.90
1546;DHT22;766;51.502;9.752;2023-04-01T01:06:43;8.00;99.90
1546;DHT22;766;51.502;9.752;2023-04-01T01:09:23;8.00;99.90
1546;DHT22;766;51.502;9.752;2023-04-01T01:12:03;8.00;99.90
1546;DHT22;766;51.502;9.752;2023-04-01T01:14:41;8.00;99.90
1546;DHT22;766;51.502;9.752;2023-04-01T01:17:19;8.00;99.90
1546;DHT22;766;51.502;9.752;2023-04-01T01:23:23;7.90;99.90
1546;DHT22;766;51.502;9.752;2023-04-01T01:26:21;7.90;99.90
1546;DHT22;766;51.502;9.752;2023-04-01T01:29:01;7.90;99.90
1546;DHT22;766;51.502;9.752;2023-04-01T01:31:45;7.90;99.90
1546;DHT22;766;51.502;9.752;2023-04-01T01:34:23;7.90;99.90
1546;DHT22;766;51.502;9.752;2023-04-01T01:37:01;7.90;99.90
1546;DHT22;766;51.502;9.752;2023-04-01T01:39:34;7.90;99.90
1546;DHT22;766;51.502;9.752;2023-04-01T01:42:04;7.90;99.90
1546;DHT22;766;51.502;9.752;2023-04-01T01:44:38;7.90;99.90
1546;DHT22;766;51.502;9.752;2023-04-01T01:47:08;7.80;99.90
1546;DHT22;766;51.502;9.752;2023-04-01T01:49:37;7.80;99.90
1546;DHT22;766;51.502;9.752;2023-04-01T01:52:08;7.80;99.90
1546;DHT22;766;51.502;9.752;2023-04-01T01:54:46;7.80;99.90
1546;DHT22;766;51.502;9.752;2023-04-01T01:57:15;7.80;99.90
1546;DHT22;766;51.502;9.752;2023-04-01T01:59:46;7.80;99.90
1546;DHT22;766;51.502;9.752;2023-04-01T02:02:17;7.90;99.90
1546;DHT22;766;51.502;9.752;2023-04-01T02:04:46;7.80;99.90
1546;DHT22;766;51.502;9.752;2023-04-01T02:07:22;7.90;99.90
1546;DHT22;766;51.502;9.752;2023-04-01T02:09:52;7.90;99.90
1546;DHT22;766;51.502;9.752;2023-04-01T02:12:21;7.90;99.90
1546;DHT22;766;51.502;9.752;2023-04-01T02:14:52;7.90;99.90
1546;DHT22;766;51.502;9.752;2023-04-01T02:17:23;7.80;99.90
1546;DHT22;766;51.502;9.752;2023-04-01T02:19:56;7.80;99.90
1546;DHT22;766;51.502;9.752;2023-04-01T02:22:29;7.80;99.90
1546;DHT22;766;51.502;9.752;2023-04-01T02:25:00;7.80;99.90
1546;DHT22;766;51.502;9.752;2023-04-01T02:27:30;7.80;99.90
1546;DHT22;766;51.502;9.752;2023-04-01T02:29:59;7.80;99.90
1546;DHT22;766;51.502;9.752;2023-04-01T02:32:28;7.90;99.90
1546;DHT22;766;51.502;9.752;2023-04-01T02:35:00;7.90;99.90
1546;DHT22;766;51.502;9.752;2023-04-01T02:37:34;7.90;99.90
1546;DHT22;766;51.502;9.752;2023-04-01T02:40:07;7.90;99.90
1546;DHT22;766;51.502;9.752;2023-04-01T02:42:36;7.90;99.90
1546;DHT22;766;51.502;9.752;2023-04-01T02:45:06;7.90;99.90
1546;DHT22;766;51.502;9.752;2023-04-01T02:47:34;7.90;99.90
1546;DHT22;766;51.502;9.752;2023-04-01T02:50:03;7.90;99.90
1546;DHT22;766;51.502;9.752;2023-04-01T02:52:33;7.90;99.90
1546;DHT22;766;51.502;9.752;2023-04-01T02:55:02;7.90;99.90
1546;DHT22;766;51.502;9.752;2023-04-01T02:57:30;7.90;99.90
1546;DHT22;766;51.502;9.752;2023-04-01T02:59:59;7.80;99.90
1546;DHT22;766;51.502;9.752;2023-04-01T03:02:30;7.90;99.90
1546;DHT22;766;51.502;9.752;2023-04-01T03:04:58;7.90;99.90
1546;DHT22;766;51.502;9.752;2023-04-01T03:07:26;7.90;99.90
1546;DHT22;766;51.502;9.752;2023-04-01T03:09:56;7.90;99.90
1546;DHT22;766;51.502;9.752;2023-04-01T03:12:24;7.90;99.90
1546;DHT22;766;51.502;9.752;2023-04-01T03:14:53;7.90;99.90
1546;DHT22;766;51.502;9.752;2023-04-01T03:17:21;7.90;99.90
1546;DHT22;766;51.502;9.752;2023-04-01T03:19:52;7.90;99.90
1546;DHT22;766;51.502;9.752;2023-04-01T03:22:20;7.90;99.90
1546;DHT22;766;51.502;9.752;2023-04-01T03:24:49;7.90;99.90
1546;DHT22;766;51.502;9.752;2023-04-01T03:27:19;7.90;99.90
1546;DHT22;766;51.502;9.752;2023-04-01T03:29:49;7.90;99.90
1546;DHT22;766;51.502;9.752;2023-04-01T03:32:17;7.90;99.90
1546;DHT22;766;51.502;9.752;2023-04-01T03:34:46;7.90;99.90
1546;DHT22;766;51.502;9.752;2023-04-01T03:37:15;7.90;99.90
1546;DHT22;766;51.502;9.752;2023-04-01T03:39:43;7.90;99.90
1546;DHT22;766;51.502;9.752;2023-04-01T03:42:12;7.90;99.90
1546;DHT22;766;51.502;9.752;2023-04-01T03:44:42;7.80;99.90
1546;DHT22;766;51.502;9.752;2023-04-01T03:47:11;7.70;99.90
1546;DHT22;766;51.502;9.752;2023-04-01T03:49:39;7.70;99.90
1546;DHT22;766;51.502;9.752;2023-04-01T03:52:11;7.70;99.90
1546;DHT22;766;51.502;9.752;2023-04-01T03:54:39;7.70;99.90
1546;DHT22;766;51.502;9.752;2023-04-01T03:57:07;7.60;99.90
1546;DHT22;766;51.502;9.752;2023-04-01T03:59:36;7.60;99.90
1546;DHT22;766;51.502;9.752;2023-04-01T04:02:06;7.60;99.90
1546;DHT22;766;51.502;9.752;2023-04-01T04:04:34;7.60;99.90
1546;DHT22;766;51.502;9.752;2023-04-01T04:07:03;7.60;99.90
1546;DHT22;766;51.502;9.752;2023-04-01T04:09:32;7.60;99.90
1546;DHT22;766;51.502;9.752;2023-04-01T04:12:00;7.60;99.90
1546;DHT22;766;51.502;9.752;2023-04-01T04:14:29;7.60;99.90
1546;DHT22;766;51.502;9.752;2023-04-01T04:16:57;7.60;99.90
1546;DHT22;766;51.502;9.752;2023-04-01T04:19:31;7.60;99.90
1546;DHT22;766;51.502;9.752;2023-04-01T04:22:00;7.60;99.90
1546;DHT22;766;51.502;9.752;2023-04-01T04:24:34;7.60;99.90
1546;DHT22;766;51.502;9.752;2023-04-01T04:27:03;7.60;99.90
1546;DHT22;766;51.502;9.752;2023-04-01T04:29:31;7.60;99.90
1546;DHT22;766;51.502;9.752;2023-04-01T04:31:59;7.60;99.90
1546;DHT22;766;51.502;9.752;2023-04-01T04:34:29;7.60;99.90
1546;DHT22;766;51.502;9.752;2023-04-01T04:36:58;7.60;99.90
1546;DHT22;766;51.502;9.752;2023-04-01T04:39:32;7.50;99.90
1546;DHT22;766;51.502;9.752;2023-04-01T04:42:01;7.60;99.90
1546;DHT22;766;51.502;9.752;2023-04-01T04:44:29;7.60;99.90
1546;DHT22;766;51.502;9.752;2023-04-01T04:46:57;7.60;99.90
1546;DHT22;766;51.502;9.752;2023-04-01T04:49:31;7.60;99.90
1546;DHT22;766;51.502;9.752;2023-04-01T04:52:02;7.60;99.90
1546;DHT22;766;51.502;9.752;2023-04-01T04:54:30;7.50;99.90
1546;DHT22;766;51.502;9.752;2023-04-01T04:56:59;7.50;99.90
1546;DHT22;766;51.502;9.752;2023-04-01T04:59:29;7.50;99.90
1546;DHT22;766;51.502;9.752;2023-04-01T05:01:58;7.60;99.90
1546;DHT22;766;51.502;9.752;2023-04-01T05:04:27;7.60;99.90
1546;DHT22;766;51.502;9.752;2023-04-01T05:06:57;7.60;99.90
1546;DHT22;766;51.502;9.752;2023-04-01T05:09:26;7.60;99.90
1546;DHT22;766;51.502;9.752;2023-04-01T05:11:57;7.60;99.90
1546;DHT22;766;51.502;9.752;2023-04-01T05:14:25;7.50;99.90
1546;DHT22;766;51.502;9.752;2023-04-01T05:16:53;7.50;99.90
1546;DHT22;766;51.502;9.752;2023-04-01T05:19:22;7.50;99.90
1546;DHT22;766;51.502;9.752;2023-04-01T05:21:50;7.50;99.90
1546;DHT22;766;51.502;9.752;2023-04-01T05:24:21;7.50;99.90
1546;DHT22;766;51.502;9.752;2023-04-01T05:26:49;7.50;99.90
1546;DHT22;766;51.502;9.752;2023-04-01T05:29:18;7.50;99.90
1546;DHT22;766;51.502;9.752;2023-04-01T05:31:47;7.50;99.90
1546;DHT22;766;51.502;9.752;2023-04-01T05:34:15;7.50;99.90
1546;DHT22;766;51.502;9.752;2023-04-01T05:36:44;7.50;99.90
1546;DHT22;766;51.502;9.752;2023-04-01T05:39:12;7.50;99.90
1546;DHT22;766;51.502;9.752;2023-04-01T05:41:43;7.50;99.90
1546;DHT22;766;51.502;9.752;2023-04-01T05:44:12;7.50;99.90
1546;DHT22;766;51.502;9.752;2023-04-01T05:46:40;7.50;99.90
1546;DHT22;766;51.502;9.752;2023-04-01T05:49:09;7.50;99.90
1546;DHT22;766;51.502;9.752;2023-04-01T05:51:37;7.60;99.90
1546;DHT22;766;51.502;9.752;2023-04-01T05:54:06;7.60;99.90
1546;DHT22;766;51.502;9.752;2023-04-01T05:56:34;7.60;99.90
1546;DHT22;766;51.502;9.752;2023-04-01T05:59:04;7.60;99.90
1546;DHT22;766;51.502;9.752;2023-04-01T06:01:33;7.60;99.90
1546;DHT22;766;51.502;9.752;2023-04-01T06:04:02;7.60;99.90
1546;DHT22;766;51.502;9.752;2023-04-01T06:06:31;7.60;99.90
1546;DHT22;766;51.502;9.752;2023-04-01T06:09:12;7.60;99.90
1546;DHT22;766;51.502;9.752;2023-04-01T06:11:51;7.60;99.90
1546;DHT22;766;51.502;9.752;2023-04-01T06:14:33;7.70;99.90
1546;DHT22;766;51.502;9.752;2023-04-01T06:17:18;7.70;99.90
1546;DHT22;766;51.502;9.752;2023-04-01T06:19:53;7.70;99.90
1546;DHT22;766;51.502;9.752;2023-04-01T06:22:52;7.70;99.90
1546;DHT22;766;51.502;9.752;2023-04-01T06:25:33;7.70;99.90
1546;DHT22;766;51.502;9.752;2023-04-01T06:31:23;7.70;99.90
1546;DHT22;766;51.502;9.752;2023-04-01T06:34:08;7.70;99.90
1546;DHT22;766;51.502;9.752;2023-04-01T06:36:57;7.70;99.90
1546;DHT22;766;51.502;9.752;2023-04-01T06:39:54;7.70;99.90
1546;DHT22;766;51.502;9.752;2023-04-01T06:42:47;7.70;99.90
1546;DHT22;766;51.502;9.752;2023-04-01T06:45:31;7.80;99.90
1546;DHT22;766;51.502;9.752;2023-04-01T06:48:15;7.70;99.90
1546;DHT22;766;51.502;9.752;2023-04-01T06:50:51;7.80;99.90
1546;DHT22;766;51.502;9.752;2023-04-01T06:53:28;7.80;99.90
1546;DHT22;766;51.502;9.752;2023-04-01T06:56:02;7.80;99.90
1546;DHT22;766;51.502;9.752;2023-04-01T06:58:37;7.80;99.90
1546;DHT22;766;51.502;9.752;2023-04-01T07:01:08;7.80;99.90
1546;DHT22;766;51.502;9.752;2023-04-01T07:03:42;8.00;99.90
1546;DHT22;766;51.502;9.752;2023-04-01T07:06:16;7.90;99.90
1546;DHT22;766;51.502;9.752;2023-04-01T07:08:48;7.90;99.90
1546;DHT22;766;51.502;9.752;2023-04-01T07:11:25;7.80;99.90
1546;DHT22;766;51.502;9.752;2023-04-01T07:13:58;7.90;99.90
1546;DHT22;766;51.502;9.752;2023-04-01T07:16:30;7.80;99.90
1546;DHT22;766;51.502;9.752;2023-04-01T07:19:08;7.80;99.90
1546;DHT22;766;51.502;9.752;2023-04-01T07:21:50;7.90;99.90
1546;DHT22;766;51.502;9.752;2023-04-01T07:24:26;8.00;99.90
1546;DHT22;766;51.502;9.752;2023-04-01T07:26:56;8.10;99.90
1546;DHT22;766;51.502;9.752;2023-04-01T07:29:26;8.10;99.90
1546;DHT22;766;51.502;9.752;2023-04-01T07:32:27;8.10;99.90
1546;DHT22;766;51.502;9.752;2023-04-01T07:35:09;8.10;99.90
1546;DHT22;766;51.502;9.752;2023-04-01T07:37:54;8.20;99.90
1546;DHT22;766;51.502;9.752;2023-04-01T07:40:30;8.20;99.90
1546;DHT22;766;51.502;9.752;2023-04-01T07:43:14;8.20;99.90
1546;DHT22;766;51.502;9.752;2023-04-01T07:45:52;8.20;99.90
1546;DHT22;766;51.502;9.752;2023-04-01T07:48:29;8.20;99.90
1546;DHT22;766;51.502;9.752;2023-04-01T07:51:03;8.20;99.90
1546;DHT22;766;51.502;9.752;2023-04-01T07:53:40;8.30;99.90
1546;DHT22;766;51.502;9.752;2023-04-01T07:56:17;8.30;99.90
1546;DHT22;766;51.502;9.752;2023-04-01T07:58:56;8.30;99.90
1546;DHT22;766;51.502;9.752;2023-04-01T08:01:32;8.40;99.90
1546;DHT22;766;51.502;9.752;2023-04-01T08:04:22;8.30;99.90
1546;DHT22;766;51.502;9.752;2023-04-01T08:06:59;8.30;99.90
1546;DHT22;766;51.502;9.752;2023-04-01T08:09:42;8.20;99.90
1546;DHT22;766;51.502;9.752;2023-04-01T08:12:22;8.30;99.90
1546;DHT22;766;51.502;9.752;2023-04-01T08:15:03;8.40;99.90
1546;DHT22;766;51.502;9.752;2023-04-01T08:17:41;8.40;99.90
1546;DHT22;766;51.502;9.752;2023-04-01T08:20:21;8.60;99.90
1546;DHT22;766;51.502;9.752;2023-04-01T08:22:58;8.80;99.90
1546;DHT22;766;51.502;9.752;2023-04-01T08:25:29;8.70;99.90
1546;DHT22;766;51.502;9.752;2023-04-01T08:28:04;8.70;99.90
1546;DHT22;766;51.502;9.752;2023-04-01T08:30:42;8.60;99.90
1546;DHT22;766;51.502;9.752;2023-04-01T08:33:15;8.70;99.90
1546;DHT22;766;51.502;9.752;2023-04-01T08:35:48;8.60;99.90
1546;DHT22;766;51.502;9.752;2023-04-01T08:38:23;8.60;99.90
1546;DHT22;766;51.502;9.752;2023-04-01T08:41:01;8.60;99.90
1546;DHT22;766;51.502;9.752;2023-04-01T08:52:35;9.20;99.90
1546;DHT22;766;51.502;9.752;2023-04-01T08:55:31;9.10;99.90
1546;DHT22;766;51.502;9.752;2023-04-01T09:01:14;9.30;99.90
1546;DHT22;766;51.502;9.752;2023-04-01T09:03:58;9.30;99.90
1546;DHT22;766;51.502;9.752;2023-04-01T09:06:39;9.30;99.90
1546;DHT22;766;51.502;9.752;2023-04-01T09:12:43;9.30;99.90
1546;DHT22;766;51.502;9.752;2023-04-01T09:15:29;9.60;99.90
1546;DHT22;766;51.502;9.752;2023-04-01T09:21:23;10.00;99.90
1546;DHT22;766;51.502;9.752;2023-04-01T09:29:54;10.30;99.90
1546;DHT22;766;51.502;9.752;2023-04-01T09:32:46;10.20;99.90
1546;DHT22;766;51.502;9.752;2023-04-01T09:35:23;10.30;99.90
1546;DHT22;766;51.502;9.752;2023-04-01T09:38:02;10.20;99.90
1546;DHT22;766;51.502;9.752;2023-04-01T09:40:40;10.10;99.90
1546;DHT22;766;51.502;9.752;2023-04-01T09:43:28;10.20;99.90
1546;DHT22;766;51.502;9.752;2023-04-01T09:46:10;10.20;99.90
1546;DHT22;766;51.502;9.752;2023-04-01T09:51:47;10.60;99.90
1546;DHT22;766;51.502;9.752;2023-04-01T09:54:27;10.70;99.90
1546;DHT22;766;51.502;9.752;2023-04-01T09:57:22;10.70;99.90
1546;DHT22;766;51.502;9.752;2023-04-01T10:00:32;10.60;99.90
1546;DHT22;766;51.502;9.752;2023-04-01T10:06:57;10.30;99.90
1546;DHT22;766;51.502;9.752;2023-04-01T10:13:02;10.00;99.90
1546;DHT22;766;51.502;9.752;2023-04-01T10:15:54;10.10;99.90
1546;DHT22;766;51.502;9.752;2023-04-01T10:21:58;10.10;99.90
1546;DHT22;766;51.502;9.752;2023-04-01T10:24:54;10.00;99.90
1546;DHT22;766;51.502;9.752;2023-04-01T10:30:53;9.80;99.90
1546;DHT22;766;51.502;9.752;2023-04-01T10:33:44;9.70;99.90
1546;DHT22;766;51.502;9.752;2023-04-01T10:36:35;9.80;99.90
1546;DHT22;766;51.502;9.752;2023-04-01T10:49:10;10.20;99.90
1546;DHT22;766;51.502;9.752;2023-04-01T10:54:59;10.50;99.90
1546;DHT22;766;51.502;9.752;2023-04-01T10:57:54;10.60;99.90
1546;DHT22;766;51.502;9.752;2023-04-01T11:03:56;10.50;99.90
1546;DHT22;766;51.502;9.752;2023-04-01T11:10:09;10.50;99.90
1546;DHT22;766;51.502;9.752;2023-04-01T11:13:19;10.50;99.90
1546;DHT22;766;51.502;9.752;2023-04-01T11:16:18;10.70;99.90
1546;DHT22;766;51.502;9.752;2023-04-01T11:19:16;10.60;99.90
1546;DHT22;766;51.502;9.752;2023-04-01T11:21:59;10.70;99.90
1546;DHT22;766;51.502;9.752;2023-04-01T11:25:01;10.50;99.90
1546;DHT22;766;51.502;9.752;2023-04-01T11:27:45;10.90;99.90
1546;DHT22;766;51.502;9.752;2023-04-01T11:30:29;10.80;99.90
1546;DHT22;766;51.502;9.752;2023-04-01T11:33:05;10.70;99.90
1546;DHT22;766;51.502;9.752;2023-04-01T11:39:00;10.60;99.90
1546;DHT22;766;51.502;9.752;2023-04-01T11:41:36;10.50;99.90
1546;DHT22;766;51.502;9.752;2023-04-01T11:44:26;10.40;99.90
1546;DHT22;766;51.502;9.752;2023-04-01T11:47:20;10.30;99.90
1546;DHT22;766;51.502;9.752;2023-04-01T11:49:59;10.50;99.90
1546;DHT22;766;51.502;9.752;2023-04-01T11:52:53;10.40;99.90
1546;DHT22;766;51.502;9.752;2023-04-01T11:55:35;10.30;99.90
1546;DHT22;766;51.502;9.752;2023-04-01T11:58:35;10.30;99.90
1546;DHT22;766;51.502;9.752;2023-04-01T12:04:34;10.10;99.90
1546;DHT22;766;51.502;9.752;2023-04-01T12:07:16;10.00;99.90
1546;DHT22;766;51.502;9.752;2023-04-01T12:09:56;9.80;99.90
1546;DHT22;766;51.502;9.752;2023-04-01T12:12:35;9.70;99.90
1546;DHT22;766;51.502;9.752;2023-04-01T12:15:26;9.80;99.90
1546;DHT22;766;51.502;9.752;2023-04-01T12:18:05;9.90;99.90
1546;DHT22;766;51.502;9.752;2023-04-01T12:20:49;9.90;99.90
1546;DHT22;766;51.502;9.752;2023-04-01T12:23:38;9.70;99.90
1546;DHT22;766;51.502;9.752;2023-04-01T12:26:35;9.90;99.90
1546;DHT22;766;51.502;9.752;2023-04-01T12:29:24;9.90;99.90
1546;DHT22;766;51.502;9.752;2023-04-01T12:32:01;10.10;99.90
1546;DHT22;766;51.502;9.752;2023-04-01T12:37:42;9.70;99.90
1546;DHT22;766;51.502;9.752;2023-04-01T12:40:26;9.70;99.90
1546;DHT22;766;51.502;9.752;2023-04-01T12:43:27;9.80;99.90
1546;DHT22;766;51.502;9.752;2023-04-01T12:46:04;9.70;99.90
1546;DHT22;766;51.502;9.752;2023-04-01T12:49:12;9.90;99.90
1546;DHT22;766;51.502;9.752;2023-04-01T12:52:09;10.00;99.90
1546;DHT22;766;51.502;9.752;2023-04-01T12:54:57;10.00;99.90
1546;DHT22;766;51.502;9.752;2023-04-01T12:57:58;10.00;99.90
1546;DHT22;766;51.502;9.752;2023-04-01T13:00:43;9.90;99.90
1546;DHT22;766;51.502;9.752;2023-04-01T13:03:44;10.00;99.90
1546;DHT22;766;51.502;9.752;2023-04-01T13:06:36;10.00;99.90
1546;DHT22;766;51.502;9.752;2023-04-01T13:09:20;10.20;99.90
1546;DHT22;766;51.502;9.752;2023-04-01T13:12:05;10.20;99.90
1546;DHT22;766;51.502;9.752;2023-04-01T13:15:04;10.30;99.90
1546;DHT22;766;51.502;9.752;2023-04-01T13:17:44;10.50;99.90
1546;DHT22;766;51.502;9.752;2023-04-01T13:20:25;10.60;99.90
1546;DHT22;766;51.502;9.752;2023-04-01T13:23:06;10.90;99.90
1546;DHT22;766;51.502;9.752;2023-04-01T13:25:43;10.80;99.90
1546;DHT22;766;51.502;9.752;2023-04-01T13:28:20;10.70;99.90
1546;DHT22;766;51.502;9.752;2023-04-01T13:30:55;10.60;99.90
1546;DHT22;766;51.502;9.752;2023-04-01T13:33:33;10.40;99.90
1546;DHT22;766;51.502;9.752;2023-04-01T13:36:17;10.30;99.90
1546;DHT22;766;51.502;9.752;2023-04-01T13:39:15;10.40;99.90
1546;DHT22;766;51.502;9.752;2023-04-01T13:41:55;10.10;99.90
1546;DHT22;766;51.502;9.752;2023-04-01T13:44:30;10.20;99.90
1546;DHT22;766;51.502;9.752;2023-04-01T13:47:13;10.10;99.90
1546;DHT22;766;51.502;9.752;2023-04-01T13:50:01;10.10;99.90
1546;DHT22;766;51.502;9.752;2023-04-01T13:55:52;9.90;99.90
1546;DHT22;766;51.502;9.752;2023-04-01T13:58:49;9.80;99.90
1546;DHT22;766;51.502;9.752;2023-04-01T14:01:28;9.90;99.90
1546;DHT22;766;51.502;9.752;2023-04-01T14:07:08;9.80;99.90
1546;DHT22;766;51.502;9.752;2023-04-01T14:09:50;9.90;99.90
1546;DHT22;766;51.502;9.752;2023-04-01T14:12:30;10.00;99.90
1546;DHT22;766;51.502;9.752;2023-04-01T14:15:14;10.10;99.90
1546;DHT22;766;51.502;9.752;2023-04-01T14:18:13;10.20;99.90
1546;DHT22;766;51.502;9.752;2023-04-01T14:20:51;10.00;99.90
1546;DHT22;766;51.502;9.752;2023-04-01T14:23:46;9.90;99.90
1546;DHT22;766;51.502;9.752;2023-04-01T14:29:34;10.00;99.90
1546;DHT22;766;51.502;9.752;2023-04-01T14:32:11;10.00;99.90
1546;DHT22;766;51.502;9.752;2023-04-01T14:35:05;10.00;99.90
1546;DHT22;766;51.502;9.752;2023-04-01T14:41:19;9.90;99.90
1546;DHT22;766;51.502;9.752;2023-04-01T14:44:18;9.90;99.90
1546;DHT22;766;51.502;9.752;2023-04-01T14:50:06;9.90;99.90
1546;DHT22;766;51.502;9.752;2023-04-01T14:52:38;9.90;99.90
1546;DHT22;766;51.502;9.752;2023-04-01T14:55:25;9.80;99.90
1546;DHT22;766;51.502;9.752;2023-04-01T14:58:10;9.90;99.90
1546;DHT22;766;51.502;9.752;2023-04-01T15:00:55;10.00;99.90
1546;DHT22;766;51.502;9.752;2023-04-01T15:03:29;10.10;99.90
1546;DHT22;766;51.502;9.752;2023-04-01T15:06:27;10.10;99.90
1546;DHT22;766;51.502;9.752;2023-04-01T15:09:03;10.10;99.90
1546;DHT22;766;51.502;9.752;2023-04-01T15:11:44;10.10;99.90
1546;DHT22;766;51.502;9.752;2023-04-01T15:17:34;9.80;99.90
1546;DHT22;766;51.502;9.752;2023-04-01T15:23:16;9.80;99.90
1546;DHT22;766;51.502;9.752;2023-04-01T15:26:04;9.80;99.90
1546;DHT22;766;51.502;9.752;2023-04-01T15:28:41;9.60;99.90
1546;DHT22;766;51.502;9.752;2023-04-01T15:31:14;9.60;99.90
1546;DHT22;766;51.502;9.752;2023-04-01T15:33:54;9.60;99.90
1546;DHT22;766;51.502;9.752;2023-04-01T15:36:41;9.60;99.90
1546;DHT22;766;51.502;9.752;2023-04-01T15:39:14;9.80;99.90
1546;DHT22;766;51.502;9.752;2023-04-01T15:41:53;9.80;99.90
1546;DHT22;766;51.502;9.752;2023-04-01T15:44:46;9.80;99.90
1546;DHT22;766;51.502;9.752;2023-04-01T15:47:45;9.80;99.90
1546;DHT22;766;51.502;9.752;2023-04-01T15:50:48;9.70;99.90
1546;DHT22;766;51.502;9.752;2023-04-01T15:53:35;9.70;99.90
1546;DHT22;766;51.502;9.752;2023-04-01T15:56:19;9.70;99.90
1546;DHT22;766;51.502;9.752;2023-04-01T15:59:00;9.60;99.90
1546;DHT22;766;51.502;9.752;2023-04-01T16:01:38;9.60;99.90
1546;DHT22;766;51.502;9.752;2023-04-01T16:04:39;9.60;99.90
1546;DHT22;766;51.502;9.752;2023-04-01T16:07:27;9.60;99.90
1546;DHT22;766;51.502;9.752;2023-04-01T16:10:22;9.70;99.90
1546;DHT22;766;51.502;9.752;2023-04-01T16:13:02;9.80;99.90
1546;DHT22;766;51.502;9.752;2023-04-01T16:15:39;9.70;99.90
1546;DHT22;766;51.502;9.752;2023-04-01T16:18:36;9.70;99.90
1546;DHT22;766;51.502;9.752;2023-04-01T16:21:14;9.80;99.90
1546;DHT22;766;51.502;9.752;2023-04-01T16:23:55;9.90;99.90
1546;DHT22;766;51.502;9.752;2023-04-01T16:26:28;10.00;99.90
1546;DHT22;766;51.502;9.752;2023-04-01T16:29:05;10.10;99.90
1546;DHT22;766;51.502;9.752;2023-04-01T16:31:43;10.10;99.90
1546;DHT22;766;51.502;9.752;2023-04-01T16:34:17;10.10;99.90
1546;DHT22;766;51.502;9.752;2023-04-01T16:36:49;10.00;99.90
1546;DHT22;766;51.502;9.752;2023-04-01T16:39:32;10.10;99.90
1546;DHT22;766;51.502;9.752;2023-04-01T16:42:16;9.90;99.90
1546;DHT22;766;51.502;9.752;2023-04-01T16:44:50;9.90;99.90
1546;DHT22;766;51.502;9.752;2023-04-01T16:47:28;9.80;99.90
1546;DHT22;766;51.502;9.752;2023-04-01T16:50:00;9.70;99.90
1546;DHT22;766;51.502;9.752;2023-04-01T16:52:44;9.60;99.90
1546;DHT22;766;51.502;9.752;2023-04-01T16:55:19;9.40;99.90
1546;DHT22;766;51.502;9.752;2023-04-01T16:57:51;9.50;99.90
1546;DHT22;766;51.502;9.752;2023-04-01T17:00:26;9.60;99.90
1546;DHT22;766;51.502;9.752;2023-04-01T17:03:02;9.60;99.90
1546;DHT22;766;51.502;9.752;2023-04-01T17:05:46;9.50;99.90
1546;DHT22;766;51.502;9.752;2023-04-01T17:08:24;9.40;99.90
1546;DHT22;766;51.502;9.752;2023-04-01T17:11:00;9.40;99.90
1546;DHT22;766;51.502;9.752;2023-04-01T17:13:41;9.30;99.90
1546;DHT22;766;51.502;9.752;2023-04-01T17:16:24;9.30;99.90
1546;DHT22;766;51.502;9.752;2023-04-01T17:19:04;9.30;99.90
1546;DHT22;766;51.502;9.752;2023-04-01T17:21:48;9.30;99.90
1546;DHT22;766;51.502;9.752;2023-04-01T17:24:27;9.20;99.90
1546;DHT22;766;51.502;9.752;2023-04-01T17:27:13;9.40;99.90
1546;DHT22;766;51.502;9.752;2023-04-01T17:29:59;9.20;99.90
1546;DHT22;766;51.502;9.752;2023-04-01T17:32:40;9.30;99.90
1546;DHT22;766;51.502;9.752;2023-04-01T17:35:12;9.30;99.90
1546;DHT22;766;51.502;9.752;2023-04-01T17:37:49;9.20;99.90
1546;DHT22;766;51.502;9.752;2023-04-01T17:40:34;9.10;99.90
1546;DHT22;766;51.502;9.752;2023-04-01T17:43:15;9.00;99.90
1546;DHT22;766;51.502;9.752;2023-04-01T17:45:53;8.90;99.90
1546;DHT22;766;51.502;9.752;2023-04-01T17:48:34;8.90;99.90
1546;DHT22;766;51.502;9.752;2023-04-01T17:51:15;8.90;99.90
1546;DHT22;766;51.502;9.752;2023-04-01T17:53:49;9.00;99.90
1546;DHT22;766;51.502;9.752;2023-04-01T17:56:29;9.00;99.90
1546;DHT22;766;51.502;9.752;2023-04-01T17:59:05;9.10;99.90
1546;DHT22;766;51.502;9.752;2023-04-01T18:01:45;9.00;99.90
1546;DHT22;766;51.502;9.752;2023-04-01T18:04:31;9.00;99.90
1546;DHT22;766;51.502;9.752;2023-04-01T18:07:30;8.90;99.90
1546;DHT22;766;51.502;9.752;2023-04-01T18:10:21;8.60;99.90
1546;DHT22;766;51.502;9.752;2023-04-01T18:13:15;8.50;99.90
1546;DHT22;766;51.502;9.752;2023-04-01T18:15:59;8.70;99.90
1546;DHT22;766;51.502;9.752;2023-04-01T18:18:39;8.90;99.90
1546;DHT22;766;51.502;9.752;2023-04-01T18:21:17;8.70;99.90
1546;DHT22;766;51.502;9.752;2023-04-01T18:23:53;8.80;99.90
1546;DHT22;766;51.502;9.752;2023-04-01T18:26:32;8.80;99.90
1546;DHT22;766;51.502;9.752;2023-04-01T18:29:11;9.00;99.90
1546;DHT22;766;51.502;9.752;2023-04-01T18:31:45;9.00;99.90
1546;DHT22;766;51.502;9.752;2023-04-01T18:34:18;9.00;99.90
1546;DHT22;766;51.502;9.752;2023-04-01T18:37:00;9.10;99.90
1546;DHT22;766;51.502;9.752;2023-04-01T18:39:35;9.10;99.90
1546;DHT22;766;51.502;9.752;2023-04-01T18:42:12;9.10;99.90
1546;DHT22;766;51.502;9.752;2023-04-01T18:44:46;9.00;99.90
1546;DHT22;766;51.502;9.752;2023-04-01T18:47:25;9.10;99.90
1546;DHT22;766;51.502;9.752;2023-04-01T18:50:00;9.10;99.90
1546;DHT22;766;51.502;9.752;2023-04-01T18:52:34;9.10;99.90
1546;DHT22;766;51.502;9.752;2023-04-01T18:55:24;9.20;99.90
1546;DHT22;766;51.502;9.752;2023-04-01T18:58:14;9.10;99.90
1546;DHT22;766;51.502;9.752;2023-04-01T19:00:49;9.10;99.90
1546;DHT22;766;51.502;9.752;2023-04-01T19:03:24;9.00;99.90
1546;DHT22;766;51.502;9.752;2023-04-01T19:05:56;9.10;99.90
1546;DHT22;766;51.502;9.752;2023-04-01T19:08:33;9.00;99.90
1546;DHT22;766;51.502;9.752;2023-04-01T19:11:08;9.10;99.90
1546;DHT22;766;51.502;9.752;2023-04-01T19:13:48;9.00;99.90
1546;DHT22;766;51.502;9.752;2023-04-01T19:16:26;8.90;99.90
1546;DHT22;766;51.502;9.752;2023-04-01T19:19:13;9.00;99.90
1546;DHT22;766;51.502;9.752;2023-04-01T19:21:47;8.90;99.90
1546;DHT22;766;51.502;9.752;2023-04-01T19:24:51;8.90;99.90